Share

Bushehr, Iran

Bushehr (OIBB) Elev 62 ft | 28.97 °N, 50.82 °E | Change Station

Current weather conditions updated 33 minutes ago

Mostly Cloudy
Mostly Cloudy
77 °F
Feels Like 77 °F
N
5
Wind Variable Wind from NW
Sunrise 6:34 AM
Sunset 7:36 PM
Moon Waning Gibbous

Today is forecast to be Warmer than yesterday.

Pressure 29.74 in
Visibility 6.2 miles
Clouds Few 4000 ft
Mostly Cloudy 10000 ft
Dew Point 64 °F
Humidity 65%
Rainfall 0.00 in
Snow Depth Not available.
UV 1 out of 16
Pollen Not available.
Air Quality Not available.
Flu Activity Not available.
METAR OIBB 210330Z 32004KT 9999 FEW040 BKN100 25/18 Q1007 A2974

More Conditions Fewer Conditions

Pressure 29.74 in
Visibility 6.2 miles
Clouds Few 4000 ft
Mostly Cloudy 10000 ft
Dew Point 64 °F
Humidity 65%
Rainfall 0.00 in
Snow Depth Not available.
UV 1 out of 16
Pollen Not available.
Air Quality Not available.
Flu Activity Not available.
METAR OIBB 210330Z 32004KT 9999 FEW040 BKN100 25/18 Q1007 A2974

More Conditions Fewer Conditions

10-Day Weather Forecast

Almanac

Astronomy

Apr. 21, 2014 Rise Set
Actual Time 6:34 AM IRDT 7:36 PM IRDT
Civil Twilight 6:10 AM IRDT 8:00 PM IRDT
Nautical Twilight 5:41 AM IRDT 8:29 PM IRDT
Astronomical Twilight 5:11 AM IRDT 8:59 PM IRDT
Moon 12:39 AM IRDT 11:42 AM IRDT
Length of Visible Light 13h 50m
Length of Day
13h 01m
Tomorrow will be 1m 35s longer.
Waning Gibbous, 63% of the Moon is Illuminated
Today
Waning Gibbous
Apr 22
Last Quarter
Apr 29
New
May 6
First Quarter
May 14
Full

Yesterday's Extremes

Country Highs Country Lows

Community

  • Snowy Robin
    Snowy Robin
  • Sun Pillar and Geese
    Sun Pillar and Geese
  • Showers on the Way
    Showers on the Way
  • Easter Morning Fog
    Easter Morning Fog
  • Easter Dance
    Easter Dance

WunderPhotos

Upload Photos

1,703,551 photos uploaded!

WunderBlogs® & News

Nearby

Snow Depth

Not available.

Coastal Water Temperatures

Place Temperature
No Stations Reporting

Earthquake Activity

City Distance Mag. Time & Date
No recent earthquake activity has been reported nearby.
Minimum magnitude displayed is 2.5.

Nearby Weather Stations

There are no personal weather stations in this area.

What do you think?

We're not finished. Please let us know what you like, what you don't like, and what you are still missing.